Weather at Cumbernauld Airport

Public forecast

Using degrees Celsius for public forecast. Weather courtesy of forecast.io.

Closest aviation weather report (METAR) to Cumbernauld Airport

Closest report is Glasgow International Airport, 16.6 nm (30.7 km) WSW.

2024/05/25 04:20 (retrieved 35 minutes ago)

EGPF 250420Z AUTO 12003KT 9999 OVC041 11/09 Q1018

Closest aviation forecast (TAF) to Cumbernauld Airport

Forecast is more than 12 hours old.

Closest forecast is RAF Waddington, 207.0 nm (383.3 km) SE.

2024/05/23 15:54 (retrieved 2 days ago)

TAF TAF EGXW 231642Z 2315/2409 CNL